Time;durP1;ratioP1;P1;durP2;ratioP2;P2;SDS_P1;SDS_P2;PMS_P1;PMS_P2;Temp;Humidity;BMP_temperature;BMP_pressure;BME280_temperature;BME280_humidity;BME280_pressure;Samples;Min_cycle;Max_cycle;Signal;HPM_P1;HPM_P2
2021/05/18 00:01:56;;;;;;;19.23;9.75;;;;;;;12.21;69.79;99708.38;5085038;28;20052;-67
2021/05/18 00:04:24;;;;;;;17.00;8.75;;;;;;;12.19;70.25;99719.88;5092760;28;20079;-67
2021/05/18 00:06:51;;;;;;;17.73;9.98;;;;;;;12.17;70.20;99719.41;5092710;28;20389;-67
2021/05/18 00:12:03;;;;;;;18.92;9.73;;;;;;;12.09;70.17;99713.91;5114002;28;20063;-67
2021/05/18 00:14:32;;;;;;;17.27;10.02;;;;;;;12.10;70.64;99719.16;5112692;28;20066;-68
2021/05/18 00:16:59;;;;;;;19.50;9.75;;;;;;;12.09;70.90;99720.31;5108757;28;20140;-68
2021/05/18 00:19:27;;;;;;;16.70;9.75;;;;;;;12.10;70.43;99716.38;5092539;28;20056;-68
2021/05/18 00:21:53;;;;;;;22.20;10.30;;;;;;;12.10;70.82;99721.97;5092333;28;20048;-68
2021/05/18 00:24:20;;;;;;;16.67;10.30;;;;;;;12.12;70.84;99721.63;5084448;28;20474;-67
2021/05/18 00:26:47;;;;;;;16.60;9.63;;;;;;;12.17;70.61;99716.63;5093588;28;20051;-68
2021/05/18 00:29:14;;;;;;;19.20;10.55;;;;;;;12.21;70.39;99718.75;5088192;28;20512;-68
2021/05/18 00:31:41;;;;;;;19.63;10.18;;;;;;;12.24;70.52;99726.41;5096399;28;20389;-68
2021/05/18 00:34:08;;;;;;;19.33;10.90;;;;;;;12.26;70.48;99715.72;5089201;28;20059;-68
2021/05/18 00:36:37;;;;;;;20.45;10.45;;;;;;;12.29;71.29;99726.22;5096318;28;20048;-68
2021/05/18 00:39:05;;;;;;;24.23;11.23;;;;;;;12.28;70.45;99719.00;5088457;28;20441;-68
2021/05/18 00:41:32;;;;;;;19.20;11.25;;;;;;;12.25;70.52;99726.09;5095953;28;20060;-68
2021/05/18 00:43:59;;;;;;;21.42;11.40;;;;;;;12.22;70.70;99723.16;5096347;28;20056;-68
2021/05/18 00:46:28;;;;;;;20.48;11.32;;;;;;;12.18;70.76;99726.66;5096704;28;20507;-68
2021/05/18 00:48:58;;;;;;;25.50;11.80;;;;;;;12.16;70.80;99719.78;5096209;28;20064;-68
2021/05/18 00:51:27;;;;;;;21.92;11.52;;;;;;;12.07;71.09;99719.84;5096085;28;20060;-68
2021/05/18 00:53:57;;;;;;;21.70;11.10;;;;;;;12.09;71.15;99725.09;5092057;28;20083;-68
2021/05/18 00:58:25;;;;;;;23.42;11.70;;;;;;;12.07;71.16;99733.00;5095945;28;20055;-68
2021/05/18 00:59:19;;;;;;;21.98;11.05;;;;;;;12.05;71.11;99729.72;5087760;28;20052;-68
2021/05/18 01:01:45;;;;;;;20.40;10.80;;;;;;;12.02;70.77;99724.84;5096129;28;20056;-67
2021/05/18 01:04:15;;;;;;;24.25;10.85;;;;;;;11.99;71.15;99723.56;5087896;28;20048;-67
2021/05/18 01:06:42;;;;;;;20.77;10.95;;;;;;;11.95;71.14;99729.00;5095890;28;20071;-67
2021/05/18 01:09:13;;;;;;;25.20;12.18;;;;;;;11.94;71.30;99723.75;5087518;28;20064;-67
2021/05/18 01:11:42;;;;;;;22.67;11.98;;;;;;;11.92;71.17;99726.88;5100831;28;20489;-67
2021/05/18 01:14:12;;;;;;;20.85;10.95;;;;;;;11.94;71.07;99729.34;5116441;28;20055;-67
2021/05/18 01:16:44;;;;;;;22.90;10.95;;;;;;;11.96;70.64;99727.00;5115759;28;20401;-67
2021/05/18 01:19:11;;;;;;;19.60;10.68;;;;;;;11.93;70.60;99727.72;5116186;28;20055;-67
2021/05/18 01:21:39;;;;;;;19.65;10.25;;;;;;;11.93;70.84;99734.09;5116320;28;20055;-67
2021/05/18 01:24:07;;;;;;;19.95;11.25;;;;;;;11.90;71.03;99731.97;5091201;28;20048;-67
2021/05/18 01:26:36;;;;;;;22.85;10.80;;;;;;;11.84;71.23;99727.72;5095535;28;20405;-67
2021/05/18 01:29:05;;;;;;;21.10;11.40;;;;;;;11.77;71.18;99722.69;5088694;28;20060;-68
2021/05/18 01:31:33;;;;;;;24.50;11.60;;;;;;;11.77;71.21;99727.47;5094725;28;20052;-68
2021/05/18 01:34:02;;;;;;;19.73;11.02;;;;;;;11.75;71.49;99733.38;5088638;28;20049;-68
2021/05/18 01:36:31;;;;;;;23.77;11.73;;;;;;;11.77;71.63;99730.25;5094128;28;20066;-68
2021/05/18 01:39:10;;;;;;;25.73;11.63;;;;;;;11.78;71.50;99735.50;5087446;28;20071;-68
2021/05/18 01:44:34;;;;;;;22.33;11.75;;;;;;;11.77;71.34;99724.69;5033841;28;20517;-68
2021/05/18 01:47:01;;;;;;;24.67;11.52;;;;;;;11.74;71.63;99728.16;5078036;28;20056;-68
2021/05/18 01:49:29;;;;;;;22.33;11.40;;;;;;;11.70;71.49;99724.44;5085182;28;20056;-68
2021/05/18 01:52:03;;;;;;;18.55;11.88;;;;;;;11.74;71.64;99725.38;5094869;28;20063;-68
2021/05/18 01:54:34;;;;;;;20.98;12.23;;;;;;;11.75;71.61;99722.22;5094861;28;20055;-68
2021/05/18 01:57:17;;;;;;;21.83;12.57;;;;;;;11.74;71.44;99730.97;5094751;28;20044;-68
2021/05/18 01:59:46;;;;;;;20.67;11.73;;;;;;;11.70;72.19;99725.25;5086744;28;20056;-68
2021/05/18 02:02:15;;;;;;;25.83;12.80;;;;;;;11.70;71.86;99730.81;5094915;28;20088;-68
2021/05/18 02:04:45;;;;;;;19.27;11.48;;;;;;;11.74;71.79;99725.38;5094837;28;20504;-68
2021/05/18 02:07:17;;;;;;;21.83;12.80;;;;;;;11.73;71.74;99716.16;5095745;28;20048;-68
2021/05/18 02:09:45;;;;;;;18.95;11.73;;;;;;;11.72;71.92;99720.13;5097010;28;20048;-68
2021/05/18 02:12:12;;;;;;;21.17;12.05;;;;;;;11.68;72.17;99721.97;5109907;28;20052;-68
2021/05/18 02:14:44;;;;;;;24.15;12.48;;;;;;;11.65;72.31;99722.63;5094749;28;20469;-68
2021/05/18 02:17:17;;;;;;;19.48;12.18;;;;;;;11.61;72.52;99718.88;5092385;28;20052;-68
2021/05/18 02:25:19;;;;;;;20.33;12.63;;;;;;;11.65;72.18;99721.81;5086280;28;20063;-68
2021/05/18 02:27:47;;;;;;;24.42;12.27;;;;;;;11.70;72.20;99730.81;5094389;28;20052;-68
2021/05/18 02:30:15;;;;;;;18.25;10.98;;;;;;;11.73;72.20;99734.88;5094367;28;20489;-68
2021/05/18 02:32:43;;;;;;;23.70;12.30;;;;;;;11.74;72.08;99734.56;5094910;28;20052;-68
2021/05/18 02:35:12;;;;;;;20.73;12.63;;;;;;;11.74;71.86;99737.34;5094230;28;20055;-68
2021/05/18 02:37:40;;;;;;;26.60;13.68;;;;;;;11.75;71.51;99750.13;5094286;28;20401;-69
2021/05/18 02:40:15;;;;;;;18.85;12.18;;;;;;;11.76;71.41;99740.63;5084011;28;20063;-68
2021/05/18 02:42:43;;;;;;;21.73;11.80;;;;;;;11.83;71.39;99742.03;5094094;28;20056;-68
2021/05/18 02:45:16;;;;;;;19.55;11.50;;;;;;;11.88;71.37;99751.03;5086513;28;20055;-68
2021/05/18 02:50:28;;;;;;;22.85;12.43;;;;;;;11.89;70.79;99758.25;5094825;28;20059;-68
2021/05/18 02:52:55;;;;;;;31.85;14.65;;;;;;;11.78;72.10;99754.22;5093680;28;20052;-68
2021/05/18 02:55:26;;;;;;;27.90;15.98;;;;;;;11.60;73.55;99752.72;5094053;28;20064;-67
2021/05/18 02:57:57;;;;;;;27.55;16.08;;;;;;;11.40;75.02;99754.31;5090623;28;20055;-67
2021/05/18 03:00:25;;;;;;;32.72;16.83;;;;;;;11.31;75.02;99755.19;5085223;28;20055;-67
2021/05/18 03:02:52;;;;;;;32.63;18.35;;;;;;;11.25;75.20;99756.53;5093419;28;20052;-67
2021/05/18 03:05:20;;;;;;;43.97;20.92;;;;;;;11.18;76.15;99754.28;5093874;28;20079;-67
2021/05/18 03:07:47;;;;;;;44.08;21.55;;;;;;;11.13;76.40;99760.06;5093911;28;20052;-67
2021/05/18 03:10:15;;;;;;;42.83;22.02;;;;;;;11.02;76.45;99756.00;5094260;28;20047;-67
2021/05/18 03:12:42;;;;;;;43.63;22.38;;;;;;;11.01;77.11;99757.16;5104114;28;20052;-67
2021/05/18 03:15:12;;;;;;;47.97;21.73;;;;;;;11.00;76.90;99760.28;5093485;28;20055;-67
2021/05/18 03:17:39;;;;;;;42.30;22.20;;;;;;;11.01;77.00;99759.94;5092885;28;20126;-67
2021/05/18 03:20:08;;;;;;;49.28;21.83;;;;;;;11.03;77.42;99760.44;5093377;28;20082;-67
2021/05/18 03:22:35;;;;;;;47.80;22.35;;;;;;;11.03;76.88;99759.63;5093584;28;20062;-67
2021/05/18 03:25:03;;;;;;;40.53;20.63;;;;;;;11.01;77.43;99754.38;5084044;28;20052;-67
2021/05/18 03:27:30;;;;;;;52.55;23.10;;;;;;;11.06;77.39;99762.53;5093419;28;20048;-67
2021/05/18 03:30:00;;;;;;;42.97;21.48;;;;;;;11.11;77.21;99754.00;5093559;28;20078;-67
2021/05/18 03:35:13;;;;;;;36.42;19.20;;;;;;;11.18;76.57;99751.50;5094868;28;20066;-67
2021/05/18 03:37:49;;;;;;;38.70;18.50;;;;;;;11.17;76.36;99754.59;5093094;28;20044;-67
2021/05/18 03:40:17;;;;;;;33.25;17.63;;;;;;;11.23;76.83;99756.06;5092051;28;20059;-67
2021/05/18 03:42:47;;;;;;;34.53;17.25;;;;;;;11.23;76.25;99756.06;5092925;28;20063;-68
2021/05/18 03:45:17;;;;;;;32.92;17.90;;;;;;;11.27;76.23;99753.41;5084918;28;20514;-67
2021/05/18 03:53:36;;;;;;;32.10;16.67;;;;;;;11.35;75.69;99761.72;5093189;28;20404;-67
2021/05/18 03:59:00;;;;;;;29.30;15.27;;;;;;;11.36;74.70;99766.16;5093378;28;20404;-67
2021/05/18 04:04:19;;;;;;;24.95;15.40;;;;;;;11.40;74.64;99771.03;5093218;28;20055;-66
2021/05/18 04:12:42;;;;;;;25.17;14.23;;;;;;;11.40;74.61;99773.84;5118211;28;20054;-66
2021/05/18 04:18:01;;;;;;;24.00;15.35;;;;;;;11.48;74.50;99772.97;5091324;28;20059;-66
2021/05/18 04:20:41;;;;;;;26.27;15.45;;;;;;;11.44;74.85;99772.00;5084576;28;20516;-67
2021/05/18 04:50:53;;;;;;;26.73;13.95;;;;;;;11.51;74.78;99780.69;5092769;28;20063;-66
2021/05/18 04:53:27;;;;;;;42.10;17.08;;;;;;;11.51;75.39;99789.03;5091378;28;20063;-66
2021/05/18 05:01:33;;;;;;;31.38;16.77;;;;;;;11.46;75.82;99800.38;5092843;28;20055;-66
2021/05/18 05:04:14;;;;;;;32.30;17.40;;;;;;;11.41;76.26;99803.38;5092107;28;20481;-66
2021/05/18 05:06:53;;;;;;;31.83;17.42;;;;;;;11.40;77.04;99804.50;5091869;28;20428;-66
2021/05/18 05:09:25;;;;;;;31.50;18.48;;;;;;;11.29;77.06;99793.72;5076235;28;20123;-66
2021/05/18 05:14:37;;;;;;;34.90;17.25;;;;;;;11.34;77.01;99806.69;5085899;28;20060;-66
2021/05/18 05:17:04;;;;;;;26.55;15.88;;;;;;;11.35;76.50;99819.47;5107230;28;20051;-66
2021/05/18 05:19:31;;;;;;;31.00;17.15;;;;;;;11.40;76.29;99810.09;5115967;28;20055;-66
2021/05/18 05:21:58;;;;;;;32.58;17.52;;;;;;;11.37;76.63;99812.38;5089254;28;20503;-66
2021/05/18 05:24:26;;;;;;;34.13;17.05;;;;;;;11.44;76.80;99816.63;5085847;28;20048;-66
2021/05/18 05:26:55;;;;;;;28.85;15.05;;;;;;;11.46;76.04;99820.72;5095264;28;20393;-66
2021/05/18 05:29:23;;;;;;;33.38;17.30;;;;;;;11.50;76.21;99816.09;5095403;28;20409;-66
2021/05/18 05:31:51;;;;;;;24.73;14.90;;;;;;;11.58;76.35;99814.41;5095546;28;20052;-66
2021/05/18 05:34:19;;;;;;;28.20;15.82;;;;;;;11.64;76.61;99813.06;5095460;28;20052;-66
2021/05/18 05:36:47;;;;;;;30.40;15.20;;;;;;;11.69;76.84;99815.66;5089734;28;20048;-66
2021/05/18 05:39:22;;;;;;;23.35;13.63;;;;;;;11.75;75.81;99811.50;5086493;28;20052;-66
2021/05/18 05:41:50;;;;;;;26.10;14.25;;;;;;;11.78;76.39;99816.44;5081205;28;20048;-66
2021/05/18 05:44:17;;;;;;;23.10;13.48;;;;;;;11.89;76.01;99821.66;5086149;28;20056;-66
2021/05/18 05:46:44;;;;;;;21.88;12.73;;;;;;;12.03;75.38;99816.59;5087417;28;20055;-66
2021/05/18 05:49:11;;;;;;;27.17;13.25;;;;;;;12.15;74.97;99811.06;5079981;28;20049;-66
2021/05/18 05:51:38;;;;;;;16.85;10.90;;;;;;;12.27;74.54;99815.09;5066801;28;20048;-66
2021/05/18 05:54:06;;;;;;;12.93;9.38;;;;;;;12.27;74.06;99823.47;5083466;28;20420;-66
2021/05/18 05:56:33;;;;;;;16.10;10.00;;;;;;;12.32;73.49;99829.66;5085925;28;20486;-66
2021/05/18 05:59:02;;;;;;;15.38;9.75;;;;;;;12.39;74.04;99823.53;5089707;28;20060;-66
2021/05/18 06:01:31;;;;;;;16.10;10.52;;;;;;;12.50;73.44;99818.34;5075139;28;20489;-66
2021/05/18 06:03:58;;;;;;;16.85;11.20;;;;;;;12.61;73.97;99824.31;5082965;28;20049;-66
2021/05/18 06:06:25;;;;;;;13.75;9.77;;;;;;;12.74;73.09;99817.59;5092802;28;20056;-66
2021/05/18 06:08:52;;;;;;;12.02;8.80;;;;;;;12.85;72.41;99824.38;5082916;28;20063;-66
2021/05/18 06:11:22;;;;;;;13.38;9.60;;;;;;;12.97;72.61;99820.78;5112403;28;20506;-66
2021/05/18 06:14:07;;;;;;;9.63;6.90;;;;;;;13.07;70.74;99820.34;5094863;28;20508;-66
2021/05/18 06:17:00;;;;;;;9.30;5.60;;;;;;;13.14;69.43;99814.97;5082864;28;20059;-66
2021/05/18 06:41:37;;;;;;;13.50;10.18;;;;;;;13.31;70.39;99830.78;5091136;28;20400;-66
2021/05/18 06:46:56;;;;;;;16.15;10.13;;;;;;;13.35;70.48;99831.69;5087592;28;20070;-66
2021/05/18 06:49:24;;;;;;;16.30;10.32;;;;;;;13.34;71.54;99838.47;5094194;28;20141;-65
2021/05/18 06:51:51;;;;;;;15.82;10.73;;;;;;;13.35;71.66;99831.69;5093068;28;20047;-65
2021/05/18 06:54:18;;;;;;;18.50;11.45;;;;;;;13.34;71.17;99840.44;5091728;28;20065;-65
2021/05/18 06:56:47;;;;;;;17.92;11.85;;;;;;;13.35;71.51;99840.06;5094008;28;20051;-66
2021/05/18 07:02:00;;;;;;;16.88;11.88;;;;;;;13.35;72.63;99851.25;5090487;28;20075;-66
2021/05/18 07:04:29;;;;;;;17.02;11.68;;;;;;;13.59;70.77;99849.66;5087975;28;21082;-66
2021/05/18 07:07:05;;;;;;;14.00;10.60;;;;;;;13.68;69.96;99855.94;5086875;28;20056;-66
2021/05/18 07:09:32;;;;;;;15.73;11.15;;;;;;;13.76;69.25;99851.41;5095005;28;20054;-66
2021/05/18 07:11:59;;;;;;;15.23;11.75;;;;;;;13.83;68.80;99848.81;5087534;28;20049;-66
2021/05/18 07:14:26;;;;;;;15.38;11.95;;;;;;;13.85;69.12;99854.88;5084476;28;20052;-66
2021/05/18 07:16:53;;;;;;;16.65;11.70;;;;;;;13.92;69.59;99855.13;5102758;28;20052;-66
2021/05/18 07:19:20;;;;;;;20.65;14.15;;;;;;;14.07;69.26;99856.38;5092035;28;20048;-66
2021/05/18 07:21:50;;;;;;;20.23;13.82;;;;;;;14.19;68.73;99853.56;5091049;28;20052;-66
2021/05/18 07:24:21;;;;;;;15.85;13.32;;;;;;;14.18;69.75;99854.72;5074307;28;20421;-66
2021/05/18 07:26:50;;;;;;;20.17;13.32;;;;;;;14.17;68.38;99857.84;5090143;28;20413;-66
2021/05/18 07:29:17;;;;;;;17.35;13.13;;;;;;;14.14;68.17;99859.38;5084167;28;20064;-66
2021/05/18 07:31:44;;;;;;;14.80;11.30;;;;;;;14.03;67.62;99866.66;5105034;28;20051;-66
2021/05/18 07:34:11;;;;;;;17.52;12.48;;;;;;;14.05;68.07;99867.13;5082252;28;20052;-66
2021/05/18 07:36:38;;;;;;;16.70;12.05;;;;;;;14.05;68.34;99863.47;5093904;28;20052;-66
2021/05/18 07:39:06;;;;;;;20.17;12.40;;;;;;;13.96;69.28;99866.41;5090925;28;20047;-66
2021/05/18 07:41:33;;;;;;;13.65;11.70;;;;;;;13.97;69.26;99868.06;5075584;28;20425;-66
2021/05/18 07:44:00;;;;;;;17.95;12.55;;;;;;;13.98;69.19;99869.69;5081861;28;20067;-66
2021/05/18 07:46:27;;;;;;;14.57;11.93;;;;;;;14.00;68.88;99872.94;5089428;28;20052;-66
2021/05/18 07:49:14;;;;;;;15.57;11.90;;;;;;;13.95;68.54;99879.59;5083351;28;20052;-66
2021/05/18 07:59:12;;;;;;;17.83;12.32;;;;;;;13.66;69.35;99877.88;5075344;28;20047;-66
2021/05/18 08:05:57;;;;;;;11.50;8.27;;;;;;;12.70;71.69;99883.72;5047626;28;20072;-65
2021/05/18 08:08:24;;;;;;;14.13;8.93;;;;;;;12.69;72.25;99893.25;5069838;28;20048;-66
2021/05/18 08:10:58;;;;;;;16.10;10.05;;;;;;;12.69;73.69;99887.69;5091675;28;20408;-66
2021/05/18 08:13:25;;;;;;;13.82;9.27;;;;;;;12.77;72.80;99886.78;5090260;28;20059;-66
2021/05/18 08:19:20;;;;;;;18.42;10.40;;;;;;;13.17;73.36;99884.22;5028751;28;20072;-66
2021/05/18 08:22:26;;;;;;;17.42;11.40;;;;;;;13.35;73.00;99889.63;5066026;28;20063;-66
2021/05/18 10:23:10;;;;;;;8.20;7.40;;;;;;;28.98;27.11;99839.81;5068252;28;20064;-68
2021/05/18 10:36:32;;;;;;;12.50;7.10;;;;;;;20.08;46.68;99878.59;5071524;28;20049;-67
2021/05/18 10:39:19;;;;;;;17.55;7.97;;;;;;;18.89;50.76;99873.03;5069463;28;20049;-67
2021/05/18 10:41:50;;;;;;;9.93;7.88;;;;;;;18.01;52.76;99884.34;5067659;28;20044;-67
2021/05/18 10:44:17;;;;;;;8.90;7.38;;;;;;;17.42;53.01;99889.38;5071523;28;20057;-68
2021/05/18 10:46:49;;;;;;;9.27;8.02;;;;;;;17.07;54.93;99891.53;5072352;28;20064;-67
2021/05/18 10:49:30;;;;;;;11.75;7.45;;;;;;;16.84;55.60;99903.59;5070699;28;20413;-67
2021/05/18 10:51:59;;;;;;;12.85;7.63;;;;;;;16.59;56.42;99898.22;5077773;28;20056;-68
2021/05/18 10:54:29;;;;;;;8.23;7.40;;;;;;;16.43;57.89;99908.69;5073629;28;20044;-67
2021/05/18 10:57:11;;;;;;;13.15;7.55;;;;;;;16.28;59.10;99920.81;5072422;28;20060;-68
2021/05/18 10:59:41;;;;;;;9.55;7.85;;;;;;;16.20;59.70;99917.81;5068095;28;20059;-68
2021/05/18 11:02:10;;;;;;;9.93;7.72;;;;;;;16.19;60.47;99919.03;5072075;28;20048;-67
2021/05/18 11:04:40;;;;;;;12.13;9.13;;;;;;;16.20;61.12;99926.25;5079181;28;20052;-67
2021/05/18 11:07:08;;;;;;;13.02;8.02;;;;;;;16.03;60.12;99933.09;5072098;28;20052;-67
2021/05/18 11:09:36;;;;;;;11.45;8.77;;;;;;;15.75;60.71;99940.81;5068453;28;20056;-67
2021/05/18 11:12:05;;;;;;;11.77;8.80;;;;;;;15.56;60.61;99944.28;5064545;28;20056;-67
2021/05/18 11:14:47;;;;;;;14.30;9.55;;;;;;;15.27;61.74;99956.78;5064846;28;20500;-67
2021/05/18 11:17:17;;;;;;;11.55;10.00;;;;;;;15.06;63.19;99962.59;5074124;28;20063;-67
2021/05/18 11:20:07;;;;;;;11.80;9.40;;;;;;;15.04;63.62;99968.56;5091689;28;20044;-67
2021/05/18 11:25:32;;;;;;;9.38;8.07;;;;;;;14.93;62.64;99970.22;5075344;28;19929;-67
2021/05/18 11:28:23;;;;;;;11.43;8.77;;;;;;;14.99;63.88;99974.41;5063071;28;20055;-67
2021/05/18 11:30:52;;;;;;;11.02;8.85;;;;;;;14.96;63.62;99973.13;5066249;28;20055;-67
2021/05/18 11:33:20;;;;;;;8.80;7.28;;;;;;;14.93;64.36;99985.09;5064179;28;20049;-67
2021/05/18 11:36:00;;;;;;;8.77;6.50;;;;;;;14.91;63.52;99979.00;5070645;28;20063;-67
2021/05/18 11:38:28;;;;;;;;;;;;;;;14.86;62.30;99982.06;5070190;28;20048;-67
2021/05/18 11:40:56;;;;;;;8.35;6.75;;;;;;;14.80;62.77;99989.06;5070116;28;19931;-67
2021/05/18 11:43:26;;;;;;;8.73;6.10;;;;;;;14.76;63.07;99993.75;5069667;28;20063;-67
2021/05/18 11:46:06;;;;;;;9.57;7.40;;;;;;;14.73;63.54;99995.28;5069165;28;20406;-67
2021/05/18 11:48:34;;;;;;;9.20;7.20;;;;;;;14.68;63.62;99998.34;5075475;28;20408;-67
2021/05/18 11:51:05;;;;;;;10.90;7.35;;;;;;;14.72;62.71;100004.03;5076237;28;20393;-67
2021/05/18 11:53:35;;;;;;;8.70;7.35;;;;;;;14.77;62.59;100001.81;5077124;28;20060;-67
2021/05/18 11:56:18;;;;;;;9.95;7.95;;;;;;;14.81;60.80;100001.94;5077957;28;20048;-67
2021/05/18 11:58:45;;;;;;;12.23;7.68;;;;;;;14.87;62.28;99994.09;5073519;28;20048;-67
2021/05/18 12:01:13;;;;;;;8.85;7.72;;;;;;;14.93;62.24;99993.50;5081453;28;20477;-67
2021/05/18 12:03:43;;;;;;;8.35;6.05;;;;;;;14.97;60.29;99994.41;5088042;28;20075;-67
2021/05/18 12:06:09;;;;;;;;;;;;;;;14.91;60.30;99983.78;5080657;28;20074;-67
2021/05/18 12:08:38;;;;;;;8.48;5.53;;;;;;;14.91;61.30;99958.53;5075429;28;19924;-67
2021/05/18 12:11:16;;;;;;;7.10;4.80;;;;;;;15.02;59.48;99957.69;5083367;28;20059;-67
2021/05/18 12:13:44;;;;;;;7.28;5.15;;;;;;;15.20;60.21;99958.19;5058855;28;20091;-67
2021/05/18 12:16:13;;;;;;;6.88;6.13;;;;;;;15.36;60.85;99961.03;5086894;28;20048;-67
2021/05/18 12:18:42;;;;;;;7.55;5.40;;;;;;;15.56;58.96;99961.13;5081484;28;20056;-67
2021/05/18 12:21:14;;;;;;;8.02;5.93;;;;;;;16.11;59.40;99956.56;5081784;28;20056;-67
2021/05/18 12:23:43;;;;;;;6.78;4.95;;;;;;;16.75;56.59;99957.19;5073503;28;20048;-67
2021/05/18 12:26:15;;;;;;;6.45;5.28;;;;;;;17.22;53.99;99955.38;5080615;28;20068;-67
2021/05/18 12:28:56;;;;;;;5.10;4.60;;;;;;;17.75;50.23;99941.44;5087039;28;20047;-67
2021/05/18 12:31:28;;;;;;;5.88;5.28;;;;;;;18.59;52.16;99939.53;5091996;28;20068;-66
2021/05/18 12:33:55;;;;;;;5.30;4.80;;;;;;;20.54;49.33;99934.63;5080991;28;20074;-66
2021/05/18 12:36:22;;;;;;;6.55;4.35;;;;;;;22.45;47.28;99933.03;5092386;28;20052;-66
2021/05/18 12:39:06;;;;;;;5.63;3.55;;;;;;;23.78;38.81;99932.41;5079184;28;20049;-67
2021/05/18 12:41:50;;;;;;;3.00;2.67;;;;;;;24.48;36.92;99926.47;5091419;28;20061;-67
2021/05/18 12:44:17;;;;;;;5.35;2.78;;;;;;;24.70;38.22;99929.94;5093578;28;20682;-69
2021/05/18 12:46:59;;;;;;;4.47;2.42;;;;;;;24.68;35.12;99936.03;5093401;28;20056;-68
2021/05/18 12:49:28;;;;;;;3.50;3.20;;;;;;;24.56;35.21;99936.59;5087323;28;20063;-67
2021/05/18 12:52:10;;;;;;;3.50;3.00;;;;;;;24.70;34.36;99939.28;5089671;28;20048;-65
2021/05/18 12:54:40;;;;;;;4.63;2.80;;;;;;;25.50;33.18;99937.03;5075017;28;20070;-65
2021/05/18 12:57:08;;;;;;;6.65;4.03;;;;;;;26.14;33.60;99937.25;5075337;28;20044;-65
2021/05/18 12:59:35;;;;;;;4.85;4.35;;;;;;;26.55;32.65;99930.41;5078604;28;20384;-65
2021/05/18 13:02:03;;;;;;;3.33;3.03;;;;;;;26.93;32.37;99930.06;5076526;28;20056;-65
2021/05/18 13:04:38;;;;;;;4.30;3.90;;;;;;;27.31;28.08;99935.41;5075333;28;20055;-65
2021/05/18 13:07:14;;;;;;;4.43;3.80;;;;;;;27.64;31.56;99930.56;5079804;28;20056;-66
2021/05/18 13:09:41;;;;;;;4.53;4.15;;;;;;;27.81;31.05;99931.38;5079521;28;20177;-67
2021/05/18 13:12:12;;;;;;;4.65;4.20;;;;;;;28.16;29.99;99936.66;5082580;28;20059;-67
2021/05/18 13:14:55;;;;;;;4.40;4.00;;;;;;;28.56;29.51;99930.72;5077449;28;20059;-67
2021/05/18 13:17:23;;;;;;;3.95;3.65;;;;;;;28.79;28.19;99926.78;5072947;28;20052;-68
2021/05/18 13:20:03;;;;;;;4.93;4.00;;;;;;;29.02;28.86;99928.56;5074522;28;20501;-68
2021/05/18 13:22:32;;;;;;;4.22;3.38;;;;;;;29.20;28.32;99934.63;5073131;28;20052;-68
2021/05/18 13:27:55;;;;;;;4.35;3.95;;;;;;;28.84;27.71;99920.50;5074545;28;20127;-68
2021/05/18 13:30:25;;;;;;;5.10;3.95;;;;;;;28.77;27.75;99917.84;5070959;28;20056;-67
2021/05/18 13:32:55;;;;;;;4.00;3.70;;;;;;;28.84;29.04;99912.72;5073368;28;20425;-67
2021/05/18 13:35:25;;;;;;;7.18;4.63;;;;;;;28.44;25.41;99915.84;5082931;28;20055;-67
2021/05/18 13:37:52;;;;;;;6.28;4.55;;;;;;;28.06;27.21;99927.13;5074136;28;20045;-67
2021/05/18 13:40:20;;;;;;;4.97;4.47;;;;;;;28.14;27.72;99923.63;5083540;28;20066;-67
2021/05/18 13:42:50;;;;;;;4.85;4.35;;;;;;;27.94;27.93;99928.63;5073196;28;20067;-67
2021/05/18 13:45:18;;;;;;;4.35;3.92;;;;;;;27.53;28.46;99925.09;5082623;28;20062;-67
2021/05/18 13:47:45;;;;;;;4.95;3.95;;;;;;;26.94;29.02;99923.09;5073927;28;20053;-67
2021/05/18 13:50:13;;;;;;;6.30;4.30;;;;;;;26.25;30.15;99925.66;5080272;28;20048;-66
2021/05/18 13:52:40;;;;;;;6.43;5.20;;;;;;;25.28;30.75;99932.88;5092774;28;20044;-67
2021/05/18 13:55:08;;;;;;;5.28;4.78;;;;;;;24.32;31.55;99938.44;5101103;28;20054;-66
2021/05/18 13:57:36;;;;;;;5.55;5.05;;;;;;;23.34;33.75;99939.59;5099872;28;20052;-66
2021/05/18 14:00:08;;;;;;;5.72;5.22;;;;;;;22.43;34.73;99958.16;5100001;28;20052;-66
2021/05/18 14:02:36;;;;;;;6.70;4.30;;;;;;;21.48;35.96;99965.00;5099537;28;20063;-65
2021/05/18 14:05:06;;;;;;;4.07;3.00;;;;;;;20.68;37.33;99982.00;5100264;28;20424;-65
2021/05/18 14:08:03;;;;;;;3.10;2.30;;;;;;;19.78;38.30;99975.66;5092640;28;20498;-65
2021/05/18 14:10:30;;;;;;;2.50;2.28;;;;;;;18.99;39.77;99971.94;5098425;28;20055;-65
2021/05/18 14:12:57;;;;;;;3.55;2.75;;;;;;;18.39;43.40;99983.97;5096297;28;20059;-65
2021/05/18 14:15:24;;;;;;;4.47;3.92;;;;;;;17.76;49.36;99990.16;5103090;28;20058;-65
2021/05/18 14:17:51;;;;;;;5.63;4.10;;;;;;;17.28;52.36;99986.81;5092278;28;20048;-66
2021/05/18 14:20:18;;;;;;;6.50;5.07;;;;;;;16.86;53.76;99981.94;5100628;28;20047;-66
2021/05/18 14:22:45;;;;;;;6.72;5.60;;;;;;;16.34;57.04;99987.59;5099063;28;20048;-66
2021/05/18 14:25:13;;;;;;;19.05;7.22;;;;;;;15.78;59.72;99985.81;5097260;28;20051;-66
2021/05/18 14:27:41;;;;;;;16.20;6.70;;;;;;;14.99;63.06;99980.84;5090953;28;20052;-65
2021/05/18 14:30:11;;;;;;;10.00;6.30;;;;;;;14.26;66.75;99981.81;5091825;28;20063;-66
2021/05/18 14:32:41;;;;;;;27.85;8.75;;;;;;;13.90;70.15;99983.44;5090517;28;20048;-67
2021/05/18 14:35:11;;;;;;;21.40;8.50;;;;;;;13.48;73.25;99980.81;5099425;28;20058;-66
2021/05/18 14:37:39;;;;;;;12.93;9.02;;;;;;;13.25;73.06;99983.16;5102391;28;20055;-66
2021/05/18 14:40:21;;;;;;;9.73;8.43;;;;;;;13.23;72.55;99974.31;5100030;28;20063;-66
2021/05/18 14:42:53;;;;;;;16.20;8.40;;;;;;;13.12;74.05;99973.91;5101495;28;20059;-66
2021/05/18 14:45:24;;;;;;;10.02;7.15;;;;;;;13.11;73.93;99969.47;5099365;28;20071;-66
2021/05/18 14:48:10;;;;;;;8.07;5.93;;;;;;;13.26;71.96;99958.81;5091537;28;20048;-65
2021/05/18 14:53:43;;;;;;;7.28;4.75;;;;;;;13.57;71.26;99950.75;5084498;28;20060;-66
2021/05/18 14:56:11;;;;;;;5.85;5.20;;;;;;;13.89;71.26;99969.78;5065704;28;20045;-67
2021/05/18 14:58:38;;;;;;;7.72;6.07;;;;;;;14.05;69.53;99983.91;5062750;28;20409;-66
2021/05/18 15:01:06;;;;;;;9.00;7.13;;;;;;;14.22;70.67;99980.88;5072425;28;20048;-67
2021/05/18 15:03:34;;;;;;;11.57;8.27;;;;;;;14.40;70.36;99975.81;5072488;28;20057;-67
2021/05/18 15:06:01;;;;;;;9.95;6.72;;;;;;;14.58;68.34;99984.81;5072934;28;20070;-66
2021/05/18 15:08:28;;;;;;;8.20;6.32;;;;;;;14.52;67.87;99973.00;5073286;28;20057;-67
2021/05/18 15:10:57;;;;;;;6.35;5.00;;;;;;;14.68;66.70;99964.72;5072913;28;20067;-67
2021/05/18 15:13:25;;;;;;;7.05;4.70;;;;;;;14.64;64.82;99974.19;5072338;28;20246;-67
2021/05/18 15:15:52;;;;;;;4.47;4.00;;;;;;;14.53;64.67;99973.81;5072775;28;20048;-67
2021/05/18 15:18:19;;;;;;;3.97;3.50;;;;;;;14.61;63.91;99961.69;5071740;28;20076;-67
2021/05/18 15:20:45;;;;;;;6.75;5.43;;;;;;;14.63;64.88;99966.94;5072371;28;20059;-67
2021/05/18 15:23:15;;;;;;;4.43;4.03;;;;;;;14.72;66.07;99970.41;5071622;28;20458;-67
2021/05/18 15:25:42;;;;;;;;;;;;;;;14.84;65.28;99969.56;5072130;28;20485;-68
2021/05/18 15:28:08;;;;;;;3.97;3.38;;;;;;;14.98;64.18;99958.78;5072188;28;19920;-67
2021/05/18 15:30:37;;;;;;;4.57;3.90;;;;;;;15.11;63.25;99965.13;5068771;28;20504;-67
2021/05/18 15:33:04;;;;;;;3.60;3.10;;;;;;;15.25;62.80;99962.72;5073116;28;20055;-70
2021/05/18 15:35:31;;;;;;;3.85;3.08;;;;;;;15.43;62.14;99963.19;5072667;28;20059;-70
2021/05/18 15:38:00;;;;;;;4.28;3.55;;;;;;;15.61;62.78;99980.53;5073427;28;20049;-69
2021/05/18 15:40:27;;;;;;;4.33;3.00;;;;;;;15.56;60.35;99964.78;5072417;28;20045;-69
2021/05/18 15:42:54;;;;;;;3.95;3.25;;;;;;;15.74;60.61;99982.09;5072615;28;20071;-69
2021/05/18 15:45:21;;;;;;;6.32;4.75;;;;;;;16.02;61.83;99981.19;5072997;28;20056;-69
2021/05/18 15:47:52;;;;;;;6.72;4.47;;;;;;;16.29;62.09;99989.88;5072305;28;20052;-69
2021/05/18 15:50:19;;;;;;;6.95;4.95;;;;;;;16.42;60.82;100008.25;5072780;28;20048;-69
2021/05/18 15:52:46;;;;;;;6.70;4.60;;;;;;;16.59;60.11;100001.44;5074794;28;20044;-68